sensor_id;sensor_type;location;lat;lon;timestamp;P1;durP1;ratioP1;P2;durP2;ratioP2
73172;SDS011;61388;54.962;73.394;2022-09-16T00:01:48;185.20;;;168.70;;
73172;SDS011;61388;54.962;73.394;2022-09-16T00:04:15;169.98;;;156.02;;
73172;SDS011;61388;54.962;73.394;2022-09-16T00:06:52;165.68;;;152.38;;
73172;SDS011;61388;54.962;73.394;2022-09-16T00:09:28;162.57;;;149.70;;
73172;SDS011;61388;54.962;73.394;2022-09-16T00:11:54;155.68;;;141.00;;
73172;SDS011;61388;54.962;73.394;2022-09-16T00:14:30;158.17;;;146.27;;
73172;SDS011;61388;54.962;73.394;2022-09-16T00:17:00;185.32;;;171.45;;
73172;SDS011;61388;54.962;73.394;2022-09-16T00:19:36;154.70;;;142.30;;
73172;SDS011;61388;54.962;73.394;2022-09-16T00:22:07;140.40;;;127.78;;
73172;SDS011;61388;54.962;73.394;2022-09-16T00:24:38;138.40;;;126.05;;
73172;SDS011;61388;54.962;73.394;2022-09-16T00:27:04;132.13;;;120.13;;
73172;SDS011;61388;54.962;73.394;2022-09-16T00:29:30;134.98;;;122.22;;
73172;SDS011;61388;54.962;73.394;2022-09-16T00:32:00;120.85;;;109.68;;
73172;SDS011;61388;54.962;73.394;2022-09-16T00:34:31;110.22;;;100.10;;
73172;SDS011;61388;54.962;73.394;2022-09-16T00:36:57;97.97;;;88.67;;
73172;SDS011;61388;54.962;73.394;2022-09-16T00:39:28;89.50;;;81.00;;
73172;SDS011;61388;54.962;73.394;2022-09-16T00:41:54;87.88;;;79.82;;
73172;SDS011;61388;54.962;73.394;2022-09-16T00:47:20;81.78;;;73.30;;
73172;SDS011;61388;54.962;73.394;2022-09-16T00:49:48;80.37;;;72.40;;
73172;SDS011;61388;54.962;73.394;2022-09-16T00:52:14;89.50;;;78.95;;
73172;SDS011;61388;54.962;73.394;2022-09-16T00:54:41;86.63;;;77.80;;
73172;SDS011;61388;54.962;73.394;2022-09-16T00:57:08;87.93;;;78.55;;
73172;SDS011;61388;54.962;73.394;2022-09-16T00:59:36;87.30;;;77.85;;
73172;SDS011;61388;54.962;73.394;2022-09-16T01:02:05;87.07;;;78.43;;
73172;SDS011;61388;54.962;73.394;2022-09-16T01:04:37;86.35;;;77.07;;
73172;SDS011;61388;54.962;73.394;2022-09-16T01:07:04;90.22;;;81.50;;
73172;SDS011;61388;54.962;73.394;2022-09-16T01:09:30;88.47;;;80.13;;
73172;SDS011;61388;54.962;73.394;2022-09-16T01:12:02;81.77;;;73.50;;
73172;SDS011;61388;54.962;73.394;2022-09-16T01:14:28;81.40;;;73.32;;
73172;SDS011;61388;54.962;73.394;2022-09-16T01:17:16;77.00;;;69.47;;
73172;SDS011;61388;54.962;73.394;2022-09-16T01:25:25;81.47;;;70.87;;
73172;SDS011;61388;54.962;73.394;2022-09-16T01:28:15;76.55;;;68.32;;
73172;SDS011;61388;54.962;73.394;2022-09-16T01:30:48;86.43;;;77.18;;
73172;SDS011;61388;54.962;73.394;2022-09-16T01:33:41;85.93;;;77.43;;
73172;SDS011;61388;54.962;73.394;2022-09-16T01:37:16;86.40;;;77.00;;
73172;SDS011;61388;54.962;73.394;2022-09-16T01:42:19;89.68;;;81.43;;
73172;SDS011;61388;54.962;73.394;2022-09-16T01:54:41;125.00;;;115.40;;
73172;SDS011;61388;54.962;73.394;2022-09-16T01:57:25;77.63;;;70.03;;
73172;SDS011;61388;54.962;73.394;2022-09-16T02:00:06;71.65;;;62.05;;
73172;SDS011;61388;54.962;73.394;2022-09-16T02:05:19;49.78;;;31.23;;
73172;SDS011;61388;54.962;73.394;2022-09-16T02:07:48;55.47;;;31.83;;
73172;SDS011;61388;54.962;73.394;2022-09-16T02:10:19;57.97;;;27.80;;
73172;SDS011;61388;54.962;73.394;2022-09-16T02:13:03;44.38;;;24.10;;
73172;SDS011;61388;54.962;73.394;2022-09-16T02:19:58;69.40;;;62.47;;
73172;SDS011;61388;54.962;73.394;2022-09-16T02:44:20;62.20;;;21.00;;
73172;SDS011;61388;54.962;73.394;2022-09-16T02:46:59;66.63;;;20.87;;
73172;SDS011;61388;54.962;73.394;2022-09-16T02:49:37;96.63;;;28.83;;
73172;SDS011;61388;54.962;73.394;2022-09-16T02:55:12;88.38;;;34.20;;
73172;SDS011;61388;54.962;73.394;2022-09-16T02:57:39;116.97;;;39.85;;
73172;SDS011;61388;54.962;73.394;2022-09-16T03:00:09;92.43;;;33.20;;
73172;SDS011;61388;54.962;73.394;2022-09-16T03:02:41;90.28;;;36.38;;
73172;SDS011;61388;54.962;73.394;2022-09-16T03:05:07;98.38;;;34.95;;
73172;SDS011;61388;54.962;73.394;2022-09-16T03:07:46;88.47;;;33.58;;
73172;SDS011;61388;54.962;73.394;2022-09-16T03:10:15;78.03;;;29.13;;
73172;SDS011;61388;54.962;73.394;2022-09-16T03:26:34;27.05;;;14.77;;
73172;SDS011;61388;54.962;73.394;2022-09-16T03:31:34;31.93;;;14.90;;
73172;SDS011;61388;54.962;73.394;2022-09-16T03:36:31;66.85;;;60.05;;
73172;SDS011;61388;54.962;73.394;2022-09-16T03:39:05;74.65;;;67.75;;
73172;SDS011;61388;54.962;73.394;2022-09-16T03:41:36;51.13;;;45.08;;
73172;SDS011;61388;54.962;73.394;2022-09-16T03:44:05;78.33;;;70.87;;
73172;SDS011;61388;54.962;73.394;2022-09-16T03:54:59;65.72;;;60.67;;
73172;SDS011;61388;54.962;73.394;2022-09-16T03:57:26;83.25;;;77.15;;
73172;SDS011;61388;54.962;73.394;2022-09-16T03:59:57;75.10;;;69.17;;
73172;SDS011;61388;54.962;73.394;2022-09-16T04:02:25;85.32;;;78.95;;
73172;SDS011;61388;54.962;73.394;2022-09-16T04:05:03;131.73;;;122.95;;
73172;SDS011;61388;54.962;73.394;2022-09-16T04:07:38;138.30;;;128.55;;
73172;SDS011;61388;54.962;73.394;2022-09-16T04:10:11;103.60;;;96.30;;
73172;SDS011;61388;54.962;73.394;2022-09-16T04:12:37;188.33;;;175.90;;
73172;SDS011;61388;54.962;73.394;2022-09-16T04:15:15;209.68;;;194.82;;
73172;SDS011;61388;54.962;73.394;2022-09-16T04:17:44;125.22;;;116.35;;
73172;SDS011;61388;54.962;73.394;2022-09-16T04:20:26;179.80;;;167.93;;
73172;SDS011;61388;54.962;73.394;2022-09-16T04:22:52;246.97;;;230.23;;
73172;SDS011;61388;54.962;73.394;2022-09-16T04:55:16;286.17;;;267.33;;
73172;SDS011;61388;54.962;73.394;2022-09-16T05:41:53;154.60;;;142.75;;
73172;SDS011;61388;54.962;73.394;2022-09-16T05:54:42;181.90;;;168.20;;
73172;SDS011;61388;54.962;73.394;2022-09-16T05:57:20;162.10;;;149.88;;
73172;SDS011;61388;54.962;73.394;2022-09-16T05:59:49;189.33;;;175.90;;
73172;SDS011;61388;54.962;73.394;2022-09-16T06:02:15;185.48;;;171.35;;
73172;SDS011;61388;54.962;73.394;2022-09-16T06:04:51;170.05;;;157.57;;
73172;SDS011;61388;54.962;73.394;2022-09-16T06:07:28;212.77;;;197.77;;
73172;SDS011;61388;54.962;73.394;2022-09-16T06:09:54;273.00;;;254.13;;
73172;SDS011;61388;54.962;73.394;2022-09-16T06:12:29;213.70;;;198.17;;
73172;SDS011;61388;54.962;73.394;2022-09-16T06:14:56;247.40;;;230.30;;
73172;SDS011;61388;54.962;73.394;2022-09-16T06:17:26;261.20;;;243.57;;
73172;SDS011;61388;54.962;73.394;2022-09-16T06:19:58;179.25;;;166.43;;
73172;SDS011;61388;54.962;73.394;2022-09-16T06:23:34;93.25;;;84.43;;
73172;SDS011;61388;54.962;73.394;2022-09-16T06:26:35;52.87;;;47.80;;
73172;SDS011;61388;54.962;73.394;2022-09-16T06:32:16;138.27;;;129.68;;
73172;SDS011;61388;54.962;73.394;2022-09-16T06:34:46;107.00;;;100.32;;
73172;SDS011;61388;54.962;73.394;2022-09-16T06:37:17;79.00;;;73.53;;
73172;SDS011;61388;54.962;73.394;2022-09-16T06:39:48;58.00;;;54.53;;
73172;SDS011;61388;54.962;73.394;2022-09-16T06:42:17;46.90;;;43.80;;
73172;SDS011;61388;54.962;73.394;2022-09-16T06:45:03;25.60;;;23.88;;
73172;SDS011;61388;54.962;73.394;2022-09-16T06:55:33;9.68;;;8.00;;
73172;SDS011;61388;54.962;73.394;2022-09-16T06:58:43;8.40;;;6.93;;
73172;SDS011;61388;54.962;73.394;2022-09-16T07:01:21;8.93;;;7.20;;
73172;SDS011;61388;54.962;73.394;2022-09-16T07:04:01;12.75;;;6.47;;
73172;SDS011;61388;54.962;73.394;2022-09-16T07:06:31;10.27;;;5.95;;
73172;SDS011;61388;54.962;73.394;2022-09-16T07:08:58;7.60;;;5.53;;
73172;SDS011;61388;54.962;73.394;2022-09-16T07:11:28;11.02;;;5.35;;
73172;SDS011;61388;54.962;73.394;2022-09-16T07:14:01;8.25;;;4.40;;
73172;SDS011;61388;54.962;73.394;2022-09-16T07:16:27;8.70;;;5.43;;
73172;SDS011;61388;54.962;73.394;2022-09-16T07:18:57;12.13;;;5.60;;
73172;SDS011;61388;54.962;73.394;2022-09-16T07:21:24;4.90;;;4.00;;
73172;SDS011;61388;54.962;73.394;2022-09-16T07:23:53;7.93;;;5.03;;
73172;SDS011;61388;54.962;73.394;2022-09-16T07:26:26;9.38;;;5.30;;
73172;SDS011;61388;54.962;73.394;2022-09-16T07:28:53;7.60;;;5.25;;
73172;SDS011;61388;54.962;73.394;2022-09-16T07:31:22;10.45;;;4.97;;
73172;SDS011;61388;54.962;73.394;2022-09-16T07:33:50;10.27;;;5.10;;
73172;SDS011;61388;54.962;73.394;2022-09-16T07:36:17;6.60;;;4.20;;
73172;SDS011;61388;54.962;73.394;2022-09-16T07:38:43;9.90;;;4.18;;
73172;SDS011;61388;54.962;73.394;2022-09-16T07:41:13;7.70;;;3.72;;
73172;SDS011;61388;54.962;73.394;2022-09-16T07:43:45;6.85;;;4.00;;
73172;SDS011;61388;54.962;73.394;2022-09-16T07:46:13;5.93;;;3.92;;
73172;SDS011;61388;54.962;73.394;2022-09-16T07:48:41;9.27;;;4.60;;
73172;SDS011;61388;54.962;73.394;2022-09-16T07:51:10;8.85;;;4.55;;
73172;SDS011;61388;54.962;73.394;2022-09-16T07:53:42;9.03;;;4.37;;
73172;SDS011;61388;54.962;73.394;2022-09-16T07:56:11;5.80;;;4.63;;
73172;SDS011;61388;54.962;73.394;2022-09-16T07:58:38;6.53;;;4.05;;
73172;SDS011;61388;54.962;73.394;2022-09-16T08:01:05;6.15;;;3.88;;
73172;SDS011;61388;54.962;73.394;2022-09-16T08:03:37;9.07;;;4.13;;
73172;SDS011;61388;54.962;73.394;2022-09-16T08:06:39;8.18;;;4.05;;
73172;SDS011;61388;54.962;73.394;2022-09-16T08:09:15;6.85;;;3.30;;
73172;SDS011;61388;54.962;73.394;2022-09-16T08:11:46;8.52;;;3.40;;
73172;SDS011;61388;54.962;73.394;2022-09-16T08:14:18;10.43;;;3.47;;
73172;SDS011;61388;54.962;73.394;2022-09-16T08:16:47;7.13;;;3.28;;
73172;SDS011;61388;54.962;73.394;2022-09-16T08:19:18;6.28;;;3.67;;
73172;SDS011;61388;54.962;73.394;2022-09-16T08:21:56;5.95;;;5.35;;
73172;SDS011;61388;54.962;73.394;2022-09-16T08:24:25;5.18;;;3.28;;
73172;SDS011;61388;54.962;73.394;2022-09-16T08:27:38;6.00;;;3.30;;
73172;SDS011;61388;54.962;73.394;2022-09-16T08:33:13;7.85;;;3.60;;
73172;SDS011;61388;54.962;73.394;2022-09-16T08:35:41;7.82;;;3.45;;
73172;SDS011;61388;54.962;73.394;2022-09-16T08:38:08;8.75;;;4.55;;
73172;SDS011;61388;54.962;73.394;2022-09-16T08:40:47;10.38;;;3.67;;
73172;SDS011;61388;54.962;73.394;2022-09-16T08:43:16;6.90;;;3.20;;
73172;SDS011;61388;54.962;73.394;2022-09-16T08:51:43;8.13;;;4.10;;
73172;SDS011;61388;54.962;73.394;2022-09-16T08:54:11;8.15;;;3.42;;
73172;SDS011;61388;54.962;73.394;2022-09-16T08:56:37;8.55;;;3.92;;
73172;SDS011;61388;54.962;73.394;2022-09-16T08:59:05;11.50;;;4.43;;
73172;SDS011;61388;54.962;73.394;2022-09-16T09:01:40;10.00;;;4.10;;
73172;SDS011;61388;54.962;73.394;2022-09-16T09:04:18;8.02;;;3.92;;
73172;SDS011;61388;54.962;73.394;2022-09-16T09:15:06;7.80;;;2.40;;
73172;SDS011;61388;54.962;73.394;2022-09-16T09:20:28;5.72;;;2.15;;
73172;SDS011;61388;54.962;73.394;2022-09-16T09:31:08;10.40;;;2.42;;
73172;SDS011;61388;54.962;73.394;2022-09-16T09:42:17;5.55;;;2.30;;
73172;SDS011;61388;54.962;73.394;2022-09-16T09:49:50;7.25;;;2.17;;
73172;SDS011;61388;54.962;73.394;2022-09-16T10:13:32;9.80;;;2.75;;
73172;SDS011;61388;54.962;73.394;2022-09-16T10:20:35;11.60;;;3.30;;
73172;SDS011;61388;54.962;73.394;2022-09-16T10:26:58;7.13;;;2.70;;
73172;SDS011;61388;54.962;73.394;2022-09-16T10:29:28;6.97;;;2.22;;
73172;SDS011;61388;54.962;73.394;2022-09-16T10:35:29;6.53;;;2.03;;
73172;SDS011;61388;54.962;73.394;2022-09-16T10:38:42;9.25;;;2.60;;
73172;SDS011;61388;54.962;73.394;2022-09-16T10:44:30;5.82;;;2.13;;
73172;SDS011;61388;54.962;73.394;2022-09-16T10:46:57;9.07;;;2.93;;
73172;SDS011;61388;54.962;73.394;2022-09-16T10:49:42;7.85;;;2.42;;
73172;SDS011;61388;54.962;73.394;2022-09-16T10:52:33;4.55;;;1.98;;
73172;SDS011;61388;54.962;73.394;2022-09-16T11:15:16;14.45;;;3.22;;
73172;SDS011;61388;54.962;73.394;2022-09-16T11:49:25;8.48;;;2.10;;
73172;SDS011;61388;54.962;73.394;2022-09-16T14:16:56;32.13;;;12.13;;
73172;SDS011;61388;54.962;73.394;2022-09-16T14:19:42;26.75;;;11.00;;
73172;SDS011;61388;54.962;73.394;2022-09-16T14:22:16;33.25;;;13.05;;
73172;SDS011;61388;54.962;73.394;2022-09-16T14:24:43;23.30;;;10.23;;
73172;SDS011;61388;54.962;73.394;2022-09-16T14:30:03;35.47;;;13.68;;
73172;SDS011;61388;54.962;73.394;2022-09-16T14:32:34;36.35;;;13.25;;
73172;SDS011;61388;54.962;73.394;2022-09-16T14:35:10;36.72;;;13.27;;
73172;SDS011;61388;54.962;73.394;2022-09-16T14:37:39;35.83;;;14.93;;
73172;SDS011;61388;54.962;73.394;2022-09-16T14:43:26;35.30;;;17.70;;
73172;SDS011;61388;54.962;73.394;2022-09-16T14:46:10;39.45;;;19.10;;
73172;SDS011;61388;54.962;73.394;2022-09-16T14:48:40;41.33;;;19.13;;
73172;SDS011;61388;54.962;73.394;2022-09-16T14:51:09;42.67;;;20.10;;
73172;SDS011;61388;54.962;73.394;2022-09-16T14:53:53;34.67;;;17.83;;
73172;SDS011;61388;54.962;73.394;2022-09-16T15:00:23;33.85;;;15.00;;
73172;SDS011;61388;54.962;73.394;2022-09-16T15:13:14;35.38;;;15.20;;
73172;SDS011;61388;54.962;73.394;2022-09-16T15:21:00;38.00;;;16.35;;
73172;SDS011;61388;54.962;73.394;2022-09-16T15:45:33;34.83;;;15.20;;
73172;SDS011;61388;54.962;73.394;2022-09-16T16:00:06;37.30;;;14.05;;
73172;SDS011;61388;54.962;73.394;2022-09-16T16:11:49;31.85;;;15.40;;
73172;SDS011;61388;54.962;73.394;2022-09-16T16:22:29;29.42;;;14.35;;
73172;SDS011;61388;54.962;73.394;2022-09-16T16:25:04;35.97;;;16.00;;
73172;SDS011;61388;54.962;73.394;2022-09-16T16:30:51;37.63;;;18.42;;
73172;SDS011;61388;54.962;73.394;2022-09-16T16:33:24;37.78;;;17.23;;
73172;SDS011;61388;54.962;73.394;2022-09-16T16:35:58;28.17;;;11.82;;
73172;SDS011;61388;54.962;73.394;2022-09-16T16:38:25;40.97;;;15.07;;
73172;SDS011;61388;54.962;73.394;2022-09-16T16:43:55;21.50;;;10.68;;
73172;SDS011;61388;54.962;73.394;2022-09-16T16:46:31;28.23;;;13.98;;
73172;SDS011;61388;54.962;73.394;2022-09-16T16:48:57;24.73;;;11.82;;
73172;SDS011;61388;54.962;73.394;2022-09-16T16:51:34;21.60;;;9.70;;
73172;SDS011;61388;54.962;73.394;2022-09-16T16:54:00;25.90;;;12.05;;
73172;SDS011;61388;54.962;73.394;2022-09-16T16:56:37;26.33;;;12.48;;
73172;SDS011;61388;54.962;73.394;2022-09-16T16:59:07;25.92;;;13.05;;
73172;SDS011;61388;54.962;73.394;2022-09-16T17:01:34;78.18;;;36.13;;
73172;SDS011;61388;54.962;73.394;2022-09-16T17:04:00;77.87;;;38.47;;
73172;SDS011;61388;54.962;73.394;2022-09-16T17:06:28;25.15;;;11.70;;
73172;SDS011;61388;54.962;73.394;2022-09-16T17:08:59;22.60;;;12.13;;
73172;SDS011;61388;54.962;73.394;2022-09-16T17:11:59;35.85;;;20.10;;
73172;SDS011;61388;54.962;73.394;2022-09-16T17:14:34;23.55;;;11.40;;
73172;SDS011;61388;54.962;73.394;2022-09-16T17:17:21;17.17;;;8.93;;
73172;SDS011;61388;54.962;73.394;2022-09-16T17:20:04;20.80;;;11.10;;
73172;SDS011;61388;54.962;73.394;2022-09-16T17:22:30;24.10;;;12.13;;
73172;SDS011;61388;54.962;73.394;2022-09-16T17:24:56;22.00;;;11.18;;
73172;SDS011;61388;54.962;73.394;2022-09-16T17:27:25;20.77;;;10.93;;
73172;SDS011;61388;54.962;73.394;2022-09-16T17:29:55;15.20;;;7.90;;
73172;SDS011;61388;54.962;73.394;2022-09-16T17:32:27;43.75;;;22.45;;
73172;SDS011;61388;54.962;73.394;2022-09-16T17:35:04;25.02;;;11.98;;
73172;SDS011;61388;54.962;73.394;2022-09-16T17:37:31;16.20;;;9.35;;
73172;SDS011;61388;54.962;73.394;2022-09-16T17:40:17;15.77;;;8.10;;
73172;SDS011;61388;54.962;73.394;2022-09-16T17:43:15;16.53;;;8.70;;
73172;SDS011;61388;54.962;73.394;2022-09-16T17:45:41;20.30;;;11.40;;
73172;SDS011;61388;54.962;73.394;2022-09-16T17:48:21;20.73;;;10.10;;
73172;SDS011;61388;54.962;73.394;2022-09-16T17:50:53;44.40;;;23.75;;
73172;SDS011;61388;54.962;73.394;2022-09-16T17:53:20;17.90;;;9.00;;
73172;SDS011;61388;54.962;73.394;2022-09-16T17:55:51;17.13;;;9.37;;
73172;SDS011;61388;54.962;73.394;2022-09-16T17:58:23;31.33;;;15.75;;
73172;SDS011;61388;54.962;73.394;2022-09-16T18:00:49;16.42;;;9.45;;
73172;SDS011;61388;54.962;73.394;2022-09-16T18:03:15;16.02;;;10.02;;
73172;SDS011;61388;54.962;73.394;2022-09-16T18:05:41;17.08;;;8.57;;
73172;SDS011;61388;54.962;73.394;2022-09-16T18:08:08;18.23;;;11.63;;
73172;SDS011;61388;54.962;73.394;2022-09-16T18:10:34;18.20;;;7.72;;
73172;SDS011;61388;54.962;73.394;2022-09-16T18:13:00;16.30;;;9.98;;
73172;SDS011;61388;54.962;73.394;2022-09-16T18:15:27;22.67;;;15.05;;
73172;SDS011;61388;54.962;73.394;2022-09-16T18:18:03;21.60;;;10.63;;
73172;SDS011;61388;54.962;73.394;2022-09-16T18:20:30;15.87;;;9.23;;
73172;SDS011;61388;54.962;73.394;2022-09-16T18:23:03;15.05;;;8.38;;
73172;SDS011;61388;54.962;73.394;2022-09-16T18:25:39;16.75;;;13.70;;
73172;SDS011;61388;54.962;73.394;2022-09-16T18:28:05;19.95;;;8.55;;
73172;SDS011;61388;54.962;73.394;2022-09-16T18:30:31;17.05;;;10.75;;
73172;SDS011;61388;54.962;73.394;2022-09-16T18:33:02;21.67;;;7.80;;
73172;SDS011;61388;54.962;73.394;2022-09-16T18:35:28;17.05;;;8.55;;
73172;SDS011;61388;54.962;73.394;2022-09-16T18:37:55;24.48;;;8.60;;
73172;SDS011;61388;54.962;73.394;2022-09-16T18:40:31;16.17;;;8.45;;
73172;SDS011;61388;54.962;73.394;2022-09-16T18:42:57;12.70;;;7.70;;
73172;SDS011;61388;54.962;73.394;2022-09-16T18:45:28;13.37;;;7.33;;
73172;SDS011;61388;54.962;73.394;2022-09-16T18:48:01;12.90;;;8.43;;
73172;SDS011;61388;54.962;73.394;2022-09-16T18:50:27;14.00;;;8.60;;
73172;SDS011;61388;54.962;73.394;2022-09-16T18:53:03;16.90;;;8.48;;
73172;SDS011;61388;54.962;73.394;2022-09-16T18:55:29;16.85;;;9.63;;
73172;SDS011;61388;54.962;73.394;2022-09-16T18:58:06;12.70;;;9.70;;
73172;SDS011;61388;54.962;73.394;2022-09-16T19:00:33;16.20;;;7.70;;
73172;SDS011;61388;54.962;73.394;2022-09-16T19:02:59;18.73;;;7.57;;
73172;SDS011;61388;54.962;73.394;2022-09-16T19:05:25;20.77;;;8.40;;
73172;SDS011;61388;54.962;73.394;2022-09-16T19:07:51;14.23;;;7.47;;
73172;SDS011;61388;54.962;73.394;2022-09-16T19:10:27;18.33;;;8.00;;
73172;SDS011;61388;54.962;73.394;2022-09-16T19:13:03;15.95;;;7.65;;
73172;SDS011;61388;54.962;73.394;2022-09-16T19:15:36;15.07;;;7.93;;
73172;SDS011;61388;54.962;73.394;2022-09-16T19:18:02;14.90;;;7.63;;
73172;SDS011;61388;54.962;73.394;2022-09-16T19:20:28;14.80;;;7.63;;
73172;SDS011;61388;54.962;73.394;2022-09-16T19:23:05;16.27;;;6.90;;
73172;SDS011;61388;54.962;73.394;2022-09-16T19:25:40;18.45;;;6.82;;
73172;SDS011;61388;54.962;73.394;2022-09-16T19:28:11;22.02;;;8.38;;
73172;SDS011;61388;54.962;73.394;2022-09-16T19:30:43;22.20;;;8.55;;
73172;SDS011;61388;54.962;73.394;2022-09-16T19:33:15;17.33;;;9.10;;
73172;SDS011;61388;54.962;73.394;2022-09-16T19:35:51;21.60;;;9.13;;
73172;SDS011;61388;54.962;73.394;2022-09-16T19:38:17;23.63;;;10.88;;
73172;SDS011;61388;54.962;73.394;2022-09-16T19:40:43;21.65;;;13.30;;
73172;SDS011;61388;54.962;73.394;2022-09-16T19:43:09;22.58;;;12.35;;
73172;SDS011;61388;54.962;73.394;2022-09-16T19:45:35;25.50;;;11.93;;
73172;SDS011;61388;54.962;73.394;2022-09-16T19:48:12;20.33;;;14.07;;
73172;SDS011;61388;54.962;73.394;2022-09-16T19:50:49;29.00;;;18.85;;
73172;SDS011;61388;54.962;73.394;2022-09-16T19:53:15;28.65;;;14.43;;
73172;SDS011;61388;54.962;73.394;2022-09-16T19:55:58;28.92;;;21.58;;
73172;SDS011;61388;54.962;73.394;2022-09-16T19:58:35;27.33;;;15.18;;
73172;SDS011;61388;54.962;73.394;2022-09-16T20:01:03;25.17;;;11.00;;
73172;SDS011;61388;54.962;73.394;2022-09-16T20:03:31;26.33;;;14.20;;
73172;SDS011;61388;54.962;73.394;2022-09-16T20:06:11;28.73;;;20.23;;
73172;SDS011;61388;54.962;73.394;2022-09-16T20:08:38;24.20;;;12.27;;
73172;SDS011;61388;54.962;73.394;2022-09-16T20:11:16;22.45;;;10.52;;
73172;SDS011;61388;54.962;73.394;2022-09-16T20:13:47;27.40;;;10.57;;
73172;SDS011;61388;54.962;73.394;2022-09-16T20:16:20;23.17;;;10.55;;
73172;SDS011;61388;54.962;73.394;2022-09-16T20:18:56;25.17;;;16.13;;
73172;SDS011;61388;54.962;73.394;2022-09-16T20:21:23;32.70;;;24.60;;
73172;SDS011;61388;54.962;73.394;2022-09-16T20:23:50;32.97;;;28.42;;
73172;SDS011;61388;54.962;73.394;2022-09-16T20:26:21;55.00;;;50.37;;
73172;SDS011;61388;54.962;73.394;2022-09-16T20:28:52;42.33;;;38.42;;
73172;SDS011;61388;54.962;73.394;2022-09-16T20:31:29;21.10;;;14.20;;
73172;SDS011;61388;54.962;73.394;2022-09-16T20:33:56;23.40;;;13.90;;
73172;SDS011;61388;54.962;73.394;2022-09-16T20:36:23;28.00;;;19.17;;
73172;SDS011;61388;54.962;73.394;2022-09-16T20:38:51;26.70;;;19.30;;
73172;SDS011;61388;54.962;73.394;2022-09-16T20:41:23;21.48;;;15.18;;
73172;SDS011;61388;54.962;73.394;2022-09-16T20:43:49;28.85;;;12.77;;
73172;SDS011;61388;54.962;73.394;2022-09-16T20:46:20;25.20;;;12.55;;
73172;SDS011;61388;54.962;73.394;2022-09-16T20:48:47;24.63;;;10.50;;
73172;SDS011;61388;54.962;73.394;2022-09-16T20:51:16;29.33;;;11.20;;
73172;SDS011;61388;54.962;73.394;2022-09-16T20:53:51;24.75;;;10.73;;
73172;SDS011;61388;54.962;73.394;2022-09-16T20:56:18;22.13;;;12.90;;
73172;SDS011;61388;54.962;73.394;2022-09-16T20:58:54;25.05;;;12.75;;
73172;SDS011;61388;54.962;73.394;2022-09-16T21:01:38;34.80;;;16.85;;
73172;SDS011;61388;54.962;73.394;2022-09-16T21:04:07;31.90;;;18.33;;
73172;SDS011;61388;54.962;73.394;2022-09-16T21:06:35;33.42;;;17.92;;
73172;SDS011;61388;54.962;73.394;2022-09-16T21:09:09;32.60;;;21.25;;
73172;SDS011;61388;54.962;73.394;2022-09-16T21:11:36;31.40;;;18.88;;
73172;SDS011;61388;54.962;73.394;2022-09-16T21:14:07;39.83;;;18.88;;
73172;SDS011;61388;54.962;73.394;2022-09-16T21:16:44;45.10;;;17.67;;
73172;SDS011;61388;54.962;73.394;2022-09-16T21:19:11;41.92;;;17.45;;
73172;SDS011;61388;54.962;73.394;2022-09-16T21:21:38;33.97;;;18.02;;
73172;SDS011;61388;54.962;73.394;2022-09-16T21:24:14;44.05;;;28.25;;
73172;SDS011;61388;54.962;73.394;2022-09-16T21:26:41;52.00;;;36.70;;
73172;SDS011;61388;54.962;73.394;2022-09-16T21:29:10;49.67;;;28.53;;
73172;SDS011;61388;54.962;73.394;2022-09-16T21:31:36;45.72;;;26.38;;
73172;SDS011;61388;54.962;73.394;2022-09-16T21:34:04;45.10;;;29.25;;
73172;SDS011;61388;54.962;73.394;2022-09-16T21:36:31;52.78;;;42.38;;
73172;SDS011;61388;54.962;73.394;2022-09-16T21:38:58;71.50;;;64.25;;
73172;SDS011;61388;54.962;73.394;2022-09-16T21:41:36;78.80;;;71.73;;
73172;SDS011;61388;54.962;73.394;2022-09-16T21:44:02;81.10;;;74.03;;
73172;SDS011;61388;54.962;73.394;2022-09-16T21:46:30;80.25;;;72.50;;
73172;SDS011;61388;54.962;73.394;2022-09-16T21:49:02;86.00;;;78.75;;
73172;SDS011;61388;54.962;73.394;2022-09-16T21:51:36;90.80;;;82.75;;
73172;SDS011;61388;54.962;73.394;2022-09-16T21:54:03;89.37;;;81.63;;
73172;SDS011;61388;54.962;73.394;2022-09-16T21:56:29;88.63;;;80.90;;
73172;SDS011;61388;54.962;73.394;2022-09-16T21:59:06;82.40;;;75.25;;
73172;SDS011;61388;54.962;73.394;2022-09-16T22:01:43;77.47;;;71.63;;
73172;SDS011;61388;54.962;73.394;2022-09-16T22:04:14;79.63;;;73.28;;
73172;SDS011;61388;54.962;73.394;2022-09-16T22:06:41;78.90;;;72.43;;
73172;SDS011;61388;54.962;73.394;2022-09-16T22:09:07;92.07;;;85.50;;
73172;SDS011;61388;54.962;73.394;2022-09-16T22:11:34;95.53;;;88.53;;
73172;SDS011;61388;54.962;73.394;2022-09-16T22:14:12;76.15;;;69.63;;
73172;SDS011;61388;54.962;73.394;2022-09-16T22:16:38;49.40;;;44.88;;
73172;SDS011;61388;54.962;73.394;2022-09-16T22:19:08;46.23;;;41.70;;
73172;SDS011;61388;54.962;73.394;2022-09-16T22:21:47;43.35;;;39.13;;
73172;SDS011;61388;54.962;73.394;2022-09-16T22:24:19;38.42;;;34.72;;
73172;SDS011;61388;54.962;73.394;2022-09-16T22:26:51;39.42;;;35.47;;
73172;SDS011;61388;54.962;73.394;2022-09-16T22:29:17;43.30;;;39.22;;
73172;SDS011;61388;54.962;73.394;2022-09-16T22:31:43;39.57;;;34.43;;
73172;SDS011;61388;54.962;73.394;2022-09-16T22:34:20;39.78;;;35.80;;
73172;SDS011;61388;54.962;73.394;2022-09-16T22:36:46;36.08;;;31.25;;
73172;SDS011;61388;54.962;73.394;2022-09-16T22:39:17;43.10;;;39.17;;
73172;SDS011;61388;54.962;73.394;2022-09-16T22:41:45;33.60;;;30.20;;
73172;SDS011;61388;54.962;73.394;2022-09-16T22:44:11;34.27;;;30.73;;
73172;SDS011;61388;54.962;73.394;2022-09-16T22:46:39;32.80;;;26.20;;
73172;SDS011;61388;54.962;73.394;2022-09-16T22:49:05;30.30;;;26.67;;
73172;SDS011;61388;54.962;73.394;2022-09-16T22:51:37;29.95;;;26.55;;
73172;SDS011;61388;54.962;73.394;2022-09-16T22:54:13;36.17;;;26.20;;
73172;SDS011;61388;54.962;73.394;2022-09-16T22:56:41;33.07;;;26.53;;
73172;SDS011;61388;54.962;73.394;2022-09-16T22:59:18;23.83;;;20.75;;
73172;SDS011;61388;54.962;73.394;2022-09-16T23:01:48;26.60;;;19.88;;
73172;SDS011;61388;54.962;73.394;2022-09-16T23:04:15;25.80;;;22.23;;
73172;SDS011;61388;54.962;73.394;2022-09-16T23:06:46;32.35;;;21.00;;
73172;SDS011;61388;54.962;73.394;2022-09-16T23:09:12;32.77;;;23.30;;
73172;SDS011;61388;54.962;73.394;2022-09-16T23:11:49;29.75;;;22.23;;
73172;SDS011;61388;54.962;73.394;2022-09-16T23:14:16;27.17;;;23.77;;
73172;SDS011;61388;54.962;73.394;2022-09-16T23:16:46;27.60;;;24.13;;
73172;SDS011;61388;54.962;73.394;2022-09-16T23:19:13;29.13;;;24.67;;
73172;SDS011;61388;54.962;73.394;2022-09-16T23:21:39;32.80;;;24.03;;
73172;SDS011;61388;54.962;73.394;2022-09-16T23:24:06;27.13;;;19.60;;
73172;SDS011;61388;54.962;73.394;2022-09-16T23:26:35;30.45;;;26.25;;
73172;SDS011;61388;54.962;73.394;2022-09-16T23:29:03;48.47;;;24.45;;
73172;SDS011;61388;54.962;73.394;2022-09-16T23:31:35;34.03;;;25.33;;
73172;SDS011;61388;54.962;73.394;2022-09-16T23:34:14;36.10;;;24.60;;